createdAt,value
2023-12-24T00:00:10.937Z,83.67
2023-12-24T00:02:39.721Z,84.55
2023-12-24T00:05:10.593Z,84.98
2023-12-24T00:07:39.317Z,84.94
2023-12-24T00:10:08.953Z,84.55
2023-12-24T00:12:39.139Z,84.86
2023-12-24T00:15:09.156Z,84.95
2023-12-24T00:17:38.220Z,84.87
2023-12-24T00:20:08.755Z,85.11
2023-12-24T00:22:38.915Z,84.58
2023-12-24T00:25:08.712Z,84.88
2023-12-24T00:27:37.418Z,84.49
2023-12-24T00:30:07.577Z,84.47
2023-12-24T00:32:36.505Z,84.16
2023-12-24T00:35:05.956Z,84.36
2023-12-24T00:37:34.693Z,84.67
2023-12-24T00:40:05.439Z,84.59
2023-12-24T00:42:34.133Z,84.50
2023-12-24T00:45:02.879Z,83.87
2023-12-24T00:47:31.689Z,83.65
2023-12-24T00:50:00.514Z,83.51
2023-12-24T00:52:29.275Z,83.38
2023-12-24T00:54:57.980Z,83.64
2023-12-24T00:57:28.081Z,84.35
2023-12-24T00:59:56.927Z,83.81
2023-12-24T01:02:25.647Z,83.72
2023-12-24T01:04:54.509Z,84.10
2023-12-24T01:07:23.339Z,84.08
2023-12-24T01:09:52.552Z,83.71
2023-12-24T01:12:21.269Z,83.31
2023-12-24T01:14:52.480Z,82.63
2023-12-24T01:17:21.335Z,83.93
2023-12-24T01:19:50.108Z,83.88
2023-12-24T01:22:18.808Z,84.68
2023-12-24T01:24:47.610Z,83.91
2023-12-24T01:27:16.396Z,84.53
2023-12-24T01:29:45.126Z,84.57
2023-12-24T01:32:15.174Z,84.50
2023-12-24T01:34:43.836Z,84.00
2023-12-24T01:37:12.491Z,84.27
2023-12-24T01:39:41.151Z,83.91
2023-12-24T01:42:09.820Z,83.93
2023-12-24T01:44:38.557Z,84.08
2023-12-24T01:47:08.132Z,84.08
2023-12-24T01:49:38.385Z,83.97
2023-12-24T01:52:07.366Z,84.06
2023-12-24T01:54:36.156Z,83.42
2023-12-24T01:57:06.194Z,83.44
2023-12-24T01:59:35.927Z,83.40
2023-12-24T02:02:05.703Z,83.93
2023-12-24T02:04:34.606Z,83.44
2023-12-24T02:07:05.438Z,82.84
2023-12-24T02:09:34.175Z,82.01
2023-12-24T02:12:02.944Z,83.10
2023-12-24T02:14:31.756Z,83.50
2023-12-24T02:17:01.321Z,83.20
2023-12-24T02:19:30.457Z,82.51
2023-12-24T02:22:00.505Z,82.72
2023-12-24T02:24:29.313Z,82.63
2023-12-24T02:27:07.694Z,82.53
2023-12-24T02:29:41.239Z,82.18
2023-12-24T02:32:17.103Z,82.53
2023-12-24T02:34:49.037Z,82.98
2023-12-24T02:37:19.255Z,82.44
2023-12-24T02:39:48.017Z,81.81
2023-12-24T02:42:16.774Z,82.08
2023-12-24T02:44:45.572Z,81.58
2023-12-24T02:47:14.298Z,81.90
2023-12-24T02:49:43.110Z,82.57
2023-12-24T02:52:11.044Z,82.34
2023-12-24T02:54:41.059Z,82.79
2023-12-24T02:57:09.805Z,82.45
2023-12-24T02:59:38.612Z,83.00
2023-12-24T03:02:07.375Z,82.42
2023-12-24T03:04:36.104Z,82.69
2023-12-24T03:07:04.971Z,82.42
2023-12-24T03:09:33.765Z,82.23
2023-12-24T03:12:04.074Z,83.33
2023-12-24T03:14:32.730Z,83.10
2023-12-24T03:17:01.608Z,82.08
2023-12-24T03:19:30.396Z,82.35
2023-12-24T03:21:59.159Z,82.73
2023-12-24T03:24:27.964Z,82.58
2023-12-24T03:26:56.733Z,82.33
2023-12-24T03:29:26.855Z,83.18
2023-12-24T03:31:55.651Z,82.83
2023-12-24T03:34:24.416Z,82.64
2023-12-24T03:36:53.150Z,82.25
2023-12-24T03:39:21.822Z,82.57
2023-12-24T03:41:50.479Z,82.79
2023-12-24T03:44:19.195Z,82.63
2023-12-24T03:46:49.320Z,83.32
2023-12-24T03:49:18.187Z,83.17
2023-12-24T03:51:48.543Z,82.51
2023-12-24T03:54:17.863Z,83.00
2023-12-24T03:56:46.619Z,82.89
2023-12-24T03:59:17.668Z,82.51
2023-12-24T04:01:46.492Z,82.77
2023-12-24T04:04:16.541Z,83.03
2023-12-24T04:06:48.068Z,83.02
2023-12-24T04:09:16.785Z,82.77
2023-12-24T04:11:45.534Z,82.48
2023-12-24T04:14:14.586Z,82.69
2023-12-24T04:16:43.360Z,82.58
2023-12-24T04:19:12.154Z,82.21
2023-12-24T04:21:42.285Z,82.47
2023-12-24T04:24:11.106Z,82.28
2023-12-24T04:26:39.896Z,81.39
2023-12-24T04:29:08.655Z,82.20
2023-12-24T04:31:40.139Z,81.36
2023-12-24T04:34:09.188Z,82.05
2023-12-24T04:36:37.981Z,82.63
2023-12-24T04:39:08.541Z,82.18
2023-12-24T04:41:38.070Z,82.10
2023-12-24T04:44:07.055Z,81.70
2023-12-24T04:46:41.697Z,82.22
2023-12-24T04:49:10.695Z,81.97
2023-12-24T04:51:42.128Z,81.65
2023-12-24T04:54:12.143Z,82.35
2023-12-24T04:56:40.936Z,81.75
2023-12-24T04:59:09.767Z,82.01
2023-12-24T05:01:38.481Z,82.21
2023-12-24T05:04:07.720Z,82.87
2023-12-24T05:06:36.450Z,82.45
2023-12-24T05:09:05.196Z,82.49
2023-12-24T05:11:35.273Z,82.88
2023-12-24T05:14:04.047Z,82.81
2023-12-24T05:16:32.741Z,83.24
2023-12-24T05:19:01.640Z,83.26
2023-12-24T05:21:31.032Z,83.47
2023-12-24T05:24:00.018Z,83.66
2023-12-24T05:26:28.791Z,83.50
2023-12-24T05:28:58.890Z,83.75
2023-12-24T05:31:27.667Z,83.67
2023-12-24T05:33:56.437Z,83.62
2023-12-24T05:36:25.157Z,83.68
2023-12-24T05:38:53.827Z,83.83
2023-12-24T05:41:23.578Z,84.36
2023-12-24T05:43:53.345Z,84.79
2023-12-24T05:46:24.249Z,84.39
2023-12-24T05:48:53.095Z,84.67
2023-12-24T05:51:21.838Z,84.74
2023-12-24T05:53:50.482Z,85.33
2023-12-24T05:56:19.225Z,85.14
2023-12-24T05:58:47.918Z,85.50
2023-12-24T06:01:16.629Z,85.37
2023-12-24T06:03:46.874Z,85.89
2023-12-24T06:06:15.744Z,86.30
2023-12-24T06:08:44.698Z,86.54
2023-12-24T06:11:17.452Z,86.04
2023-12-24T06:13:46.221Z,86.55
2023-12-24T06:16:14.938Z,86.35
2023-12-24T06:18:44.189Z,86.56
2023-12-24T06:21:14.566Z,86.36
2023-12-24T06:23:43.309Z,87.50
2023-12-24T06:26:12.090Z,87.63
2023-12-24T06:28:40.881Z,87.07
2023-12-24T06:31:10.931Z,87.79
2023-12-24T06:33:39.809Z,88.02
2023-12-24T06:36:08.931Z,88.03
2023-12-24T06:38:39.082Z,88.05
2023-12-24T06:41:07.850Z,88.43
2023-12-24T06:43:36.655Z,88.66
2023-12-24T06:46:07.598Z,88.21
2023-12-24T06:48:36.397Z,88.71
2023-12-24T06:51:05.582Z,89.33
2023-12-24T06:53:34.353Z,89.57
2023-12-24T06:56:04.981Z,89.60
2023-12-24T06:58:33.696Z,89.42
2023-12-24T07:01:02.366Z,89.61
2023-12-24T07:03:31.146Z,89.91
2023-12-24T07:06:00.568Z,89.93
2023-12-24T07:08:30.992Z,89.88
2023-12-24T07:10:59.872Z,89.64
2023-12-24T07:13:29.924Z,90.01
2023-12-24T07:16:00.860Z,89.15
2023-12-24T07:18:29.688Z,89.95
2023-12-24T07:20:58.483Z,89.91
2023-12-24T07:23:27.173Z,90.20
2023-12-24T07:25:55.871Z,89.72
2023-12-24T07:28:24.638Z,89.26
2023-12-24T07:30:54.732Z,89.17
2023-12-24T07:33:23.665Z,89.53
2023-12-24T07:35:52.769Z,89.40
2023-12-24T07:38:21.573Z,89.38
2023-12-24T07:40:50.357Z,89.21
2023-12-24T07:43:19.151Z,90.75
2023-12-24T07:45:47.898Z,91.09
2023-12-24T07:48:18.150Z,90.77
2023-12-24T07:50:47.189Z,90.50
2023-12-24T07:53:15.942Z,90.47
2023-12-24T07:55:44.748Z,90.60
2023-12-24T07:58:13.608Z,89.92
2023-12-24T08:00:42.372Z,96.72
2023-12-24T08:03:11.208Z,94.96
2023-12-24T08:05:41.359Z,95.71
2023-12-24T08:08:10.197Z,92.56
2023-12-24T08:10:38.916Z,89.91
2023-12-24T08:13:12.264Z,88.11
2023-12-24T08:15:43.092Z,88.62
2023-12-24T08:18:12.097Z,88.66
2023-12-24T08:20:42.598Z,87.94
2023-12-24T08:23:12.199Z,89.22
2023-12-24T08:25:41.007Z,89.11
2023-12-24T08:28:09.718Z,88.95
2023-12-24T08:30:38.562Z,88.48
2023-12-24T08:33:07.710Z,88.53
2023-12-24T08:35:37.665Z,89.04
2023-12-24T08:38:07.956Z,88.65
2023-12-24T08:40:36.651Z,88.90
2023-12-24T08:43:06.208Z,88.72
2023-12-24T08:45:34.957Z,89.53
2023-12-24T08:48:04.069Z,88.93
2023-12-24T08:50:33.227Z,89.71
2023-12-24T08:53:02.001Z,88.77
2023-12-24T08:55:32.087Z,88.80
2023-12-24T08:58:01.155Z,89.22
2023-12-24T09:00:30.014Z,89.33
2023-12-24T09:02:58.801Z,89.49
2023-12-24T09:05:27.669Z,89.49
2023-12-24T09:07:56.469Z,89.66
2023-12-24T09:10:25.227Z,89.24
2023-12-24T09:12:55.640Z,89.14
2023-12-24T09:15:24.637Z,89.78
2023-12-24T09:17:53.590Z,89.39
2023-12-24T09:20:22.464Z,89.74
2023-12-24T09:22:55.166Z,90.04
2023-12-24T09:25:24.190Z,91.04
2023-12-24T09:27:53.012Z,92.26
2023-12-24T09:30:25.448Z,93.72
2023-12-24T09:32:55.057Z,94.82
2023-12-24T09:35:24.252Z,95.33
2023-12-24T09:37:53.053Z,96.50
2023-12-24T09:40:21.754Z,97.25
2023-12-24T09:42:51.348Z,98.85
2023-12-24T09:45:20.482Z,96.89
2023-12-24T09:47:50.664Z,97.63
2023-12-24T09:50:19.578Z,97.83
2023-12-24T09:52:49.301Z,98.68
2023-12-24T09:55:18.014Z,99.08
2023-12-24T09:57:46.781Z,99.63
2023-12-24T10:00:17.379Z,100.00
2023-12-24T10:02:47.052Z,100.00
2023-12-24T10:05:17.745Z,100.00
2023-12-24T10:07:46.910Z,100.00
2023-12-24T10:10:16.034Z,100.00
2023-12-24T10:12:44.880Z,100.00
2023-12-24T10:15:14.802Z,99.79
2023-12-24T10:17:43.738Z,100.00
2023-12-24T10:20:13.001Z,100.00
2023-12-24T10:22:44.374Z,100.00
2023-12-24T10:25:17.034Z,100.00
2023-12-24T10:27:45.964Z,99.20
2023-12-24T10:30:17.440Z,99.30
2023-12-24T10:32:46.865Z,98.38
2023-12-24T10:35:23.242Z,98.16
2023-12-24T10:37:53.506Z,98.53
2023-12-24T10:40:22.430Z,96.94
2023-12-24T10:42:51.320Z,96.90
2023-12-24T10:45:20.268Z,95.60
2023-12-24T10:47:49.769Z,96.07
2023-12-24T10:50:18.819Z,94.92
2023-12-24T10:52:47.597Z,94.09
2023-12-24T10:55:17.995Z,94.45
2023-12-24T10:57:54.810Z,93.46
2023-12-24T11:00:23.600Z,93.20
2023-12-24T11:02:52.846Z,93.34
2023-12-24T11:05:48.546Z,93.87
2023-12-24T11:08:33.129Z,93.75
2023-12-24T11:11:05.599Z,93.21
2023-12-24T11:13:47.495Z,92.33
2023-12-24T11:16:43.301Z,92.48
2023-12-24T11:19:25.460Z,93.57
2023-12-24T11:22:15.348Z,94.02
2023-12-24T11:24:53.678Z,92.30
2023-12-24T11:27:53.059Z,95.24
2023-12-24T11:30:21.917Z,92.65
2023-12-24T11:32:51.029Z,93.00
2023-12-24T11:35:53.016Z,91.29
2023-12-24T11:38:41.368Z,90.57
2023-12-24T11:41:11.673Z,91.87
2023-12-24T11:43:42.693Z,92.16
2023-12-24T11:46:11.794Z,91.91
2023-12-24T11:48:40.678Z,92.85
2023-12-24T11:51:10.694Z,91.65
2023-12-24T11:53:40.566Z,91.57
2023-12-24T11:56:12.022Z,92.66
2023-12-24T11:58:43.125Z,91.64
2023-12-24T12:01:11.976Z,90.79
2023-12-24T12:03:40.951Z,91.17
2023-12-24T12:06:09.804Z,92.08
2023-12-24T12:08:38.626Z,91.31
2023-12-24T12:11:07.367Z,90.64
2023-12-24T12:13:36.080Z,90.92
2023-12-24T12:16:06.684Z,90.68
2023-12-24T12:18:35.555Z,89.36
2023-12-24T12:21:04.580Z,89.09
2023-12-24T12:23:33.379Z,89.82
2023-12-24T12:26:02.188Z,89.01
2023-12-24T12:28:30.927Z,89.33
2023-12-24T12:30:59.871Z,88.85
2023-12-24T12:33:30.150Z,88.82
2023-12-24T12:35:59.014Z,89.14
2023-12-24T12:38:27.877Z,88.37
2023-12-24T12:40:56.664Z,86.74
2023-12-24T12:43:25.462Z,87.49
2023-12-24T12:45:54.250Z,87.99
2023-12-24T12:48:23.093Z,88.15
2023-12-24T12:50:53.392Z,88.96
2023-12-24T12:53:25.328Z,88.56
2023-12-24T12:56:01.845Z,89.30
2023-12-24T12:58:30.640Z,88.00
2023-12-24T13:00:59.636Z,89.72
2023-12-24T13:03:28.459Z,89.20
2023-12-24T13:05:59.529Z,87.39
2023-12-24T13:08:30.409Z,87.04
2023-12-24T13:11:07.814Z,86.32
2023-12-24T13:13:36.656Z,86.49
2023-12-24T13:16:07.401Z,86.22
2023-12-24T13:18:37.139Z,86.91
2023-12-24T13:21:09.834Z,87.35
2023-12-24T13:23:38.773Z,87.07
2023-12-24T13:26:07.738Z,87.35
2023-12-24T13:28:38.102Z,87.15
2023-12-24T13:31:08.501Z,87.73
2023-12-24T13:33:37.384Z,87.65
2023-12-24T13:36:09.270Z,88.06
2023-12-24T13:38:38.184Z,87.37
2023-12-24T13:41:06.945Z,87.38
2023-12-24T13:43:35.753Z,87.55
2023-12-24T13:46:04.554Z,87.35
2023-12-24T13:48:33.383Z,87.97
2023-12-24T13:51:02.508Z,88.19
2023-12-24T13:53:33.497Z,88.86
2023-12-24T13:56:03.384Z,89.12
2023-12-24T13:58:33.170Z,88.64
2023-12-24T14:01:01.022Z,88.91
2023-12-24T14:03:30.217Z,89.27
2023-12-24T14:06:00.123Z,89.39
2023-12-24T14:08:29.980Z,89.38
2023-12-24T14:11:00.297Z,89.07
2023-12-24T14:13:29.015Z,88.64
2023-12-24T14:15:58.324Z,88.79
2023-12-24T14:18:27.497Z,87.73
2023-12-24T14:20:56.479Z,88.19
2023-12-24T14:23:25.302Z,88.80
2023-12-24T14:25:54.040Z,88.70
2023-12-24T14:28:24.133Z,88.64
2023-12-24T14:30:52.945Z,88.64
2023-12-24T14:33:22.032Z,88.87
2023-12-24T14:35:50.931Z,89.38
2023-12-24T14:38:19.714Z,88.37
2023-12-24T14:40:54.045Z,88.80
2023-12-24T14:43:24.220Z,88.39
2023-12-24T14:45:52.920Z,88.45
2023-12-24T14:48:21.803Z,88.81
2023-12-24T14:50:50.754Z,88.90
2023-12-24T14:53:19.586Z,89.44
2023-12-24T14:55:48.370Z,89.19
2023-12-24T14:58:17.107Z,88.93
2023-12-24T15:00:49.211Z,88.74
2023-12-24T15:03:18.407Z,89.29
2023-12-24T15:05:47.261Z,89.03
2023-12-24T15:08:16.120Z,88.78
2023-12-24T15:10:45.155Z,88.83
2023-12-24T15:13:14.328Z,89.66
2023-12-24T15:15:43.128Z,89.45
2023-12-24T15:18:13.846Z,89.28
2023-12-24T15:20:43.577Z,89.80
2023-12-24T15:23:12.722Z,90.34
2023-12-24T15:25:41.485Z,90.70
2023-12-24T15:28:10.284Z,91.05
2023-12-24T15:30:39.072Z,91.52
2023-12-24T15:33:07.971Z,90.87
2023-12-24T15:35:38.242Z,91.38
2023-12-24T15:38:07.047Z,91.05
2023-12-24T15:40:36.013Z,90.84
2023-12-24T15:43:05.171Z,91.03
2023-12-24T15:45:37.816Z,91.29
2023-12-24T15:48:09.020Z,91.88
2023-12-24T15:50:39.407Z,91.41
2023-12-24T15:53:08.231Z,91.22
2023-12-24T15:55:37.478Z,91.41
2023-12-24T15:58:06.363Z,91.13
2023-12-24T16:00:35.214Z,91.66
2023-12-24T16:03:04.416Z,90.93
2023-12-24T16:05:33.961Z,91.55
2023-12-24T16:08:04.557Z,91.89
2023-12-24T16:10:33.465Z,92.13
2023-12-24T16:13:02.176Z,91.69
2023-12-24T16:15:32.430Z,92.14
2023-12-24T16:18:02.668Z,91.71
2023-12-24T16:20:31.651Z,92.11
2023-12-24T16:23:00.416Z,92.40
2023-12-24T16:25:31.043Z,92.24
2023-12-24T16:27:59.720Z,92.25
2023-12-24T16:30:28.607Z,92.15
2023-12-24T16:32:57.773Z,91.74
2023-12-24T16:35:26.845Z,91.75
2023-12-24T16:37:55.634Z,91.39
2023-12-24T16:40:25.969Z,91.67
2023-12-24T16:42:56.149Z,91.61
2023-12-24T16:45:25.224Z,91.66
2023-12-24T16:47:54.437Z,91.94
2023-12-24T16:50:23.391Z,92.09
2023-12-24T16:52:52.407Z,92.25
2023-12-24T16:55:21.268Z,92.34
2023-12-24T16:57:50.034Z,92.89
2023-12-24T17:00:21.397Z,93.02
2023-12-24T17:02:50.311Z,93.43
2023-12-24T17:05:19.453Z,93.38
2023-12-24T17:07:48.214Z,93.21
2023-12-24T17:10:17.026Z,93.92
2023-12-24T17:12:45.733Z,94.24
2023-12-24T17:15:14.667Z,94.26
2023-12-24T17:17:44.852Z,94.31
2023-12-24T17:20:13.913Z,94.14
2023-12-24T17:22:42.741Z,94.79
2023-12-24T17:25:11.602Z,95.33
2023-12-24T17:27:40.376Z,96.07
2023-12-24T17:30:10.348Z,96.07
2023-12-24T17:32:39.184Z,96.19
2023-12-24T17:35:10.359Z,96.84
2023-12-24T17:37:39.303Z,96.90
2023-12-24T17:40:09.720Z,96.93
2023-12-24T17:42:38.448Z,96.67
2023-12-24T17:45:08.919Z,96.93
2023-12-24T17:47:38.616Z,97.23
2023-12-24T17:50:09.224Z,96.84
2023-12-24T17:52:38.026Z,97.04
2023-12-24T17:55:07.642Z,96.88
2023-12-24T17:57:36.443Z,96.57
2023-12-24T18:00:07.291Z,97.01
2023-12-24T18:02:38.398Z,96.98
2023-12-24T18:05:09.768Z,96.34
2023-12-24T18:07:40.521Z,96.50
2023-12-24T18:10:09.485Z,96.12
2023-12-24T18:12:38.258Z,96.29
2023-12-24T18:15:08.061Z,96.34
2023-12-24T18:17:37.661Z,95.63
2023-12-24T18:20:10.540Z,95.16
2023-12-24T18:22:42.475Z,95.08
2023-12-24T18:25:11.565Z,94.39
2023-12-24T18:27:40.326Z,94.38
2023-12-24T18:30:10.328Z,94.54
2023-12-24T18:32:39.210Z,93.85
2023-12-24T18:35:08.424Z,93.66
2023-12-24T18:37:37.162Z,93.52
2023-12-24T18:40:09.017Z,93.71
2023-12-24T18:42:37.728Z,93.54
2023-12-24T18:45:07.474Z,93.10
2023-12-24T18:47:36.306Z,93.38
2023-12-24T18:50:06.636Z,92.54
2023-12-24T18:52:35.450Z,92.38
2023-12-24T18:55:05.027Z,92.36
2023-12-24T18:57:35.173Z,91.97
2023-12-24T19:00:04.225Z,92.00
2023-12-24T19:02:33.094Z,92.01
2023-12-24T19:05:01.964Z,91.13
2023-12-24T19:07:31.481Z,90.68
2023-12-24T19:10:12.505Z,91.41
2023-12-24T19:12:42.740Z,90.81
2023-12-24T19:15:11.707Z,90.92
2023-12-24T19:17:40.596Z,90.44
2023-12-24T19:20:10.624Z,90.41
2023-12-24T19:22:39.437Z,90.60
2023-12-24T19:25:09.016Z,89.78
2023-12-24T19:27:38.123Z,89.52
2023-12-24T19:30:09.645Z,88.85
2023-12-24T19:32:38.453Z,88.97
2023-12-24T19:35:07.911Z,88.80
2023-12-24T19:37:36.822Z,88.68
2023-12-24T19:40:06.921Z,88.68
2023-12-24T19:42:35.919Z,87.78
2023-12-24T19:45:05.212Z,88.22
2023-12-24T19:47:35.407Z,88.08
2023-12-24T19:50:04.251Z,86.97
2023-12-24T19:52:39.603Z,87.71
2023-12-24T19:55:09.806Z,86.37
2023-12-24T19:57:38.690Z,85.48
2023-12-24T20:00:08.524Z,85.17
2023-12-24T20:02:40.481Z,84.66
2023-12-24T20:05:09.958Z,83.79
2023-12-24T20:07:38.864Z,83.86
2023-12-24T20:10:09.187Z,83.09
2023-12-24T20:12:38.273Z,82.71
2023-12-24T20:15:07.755Z,83.32
2023-12-24T20:17:38.106Z,81.93
2023-12-24T20:20:08.029Z,81.51
2023-12-24T20:22:37.021Z,81.68
2023-12-24T20:25:06.734Z,80.46
2023-12-24T20:27:35.574Z,79.79
2023-12-24T20:30:04.844Z,80.55
2023-12-24T20:32:33.839Z,80.19
2023-12-24T20:35:04.207Z,80.42
2023-12-24T20:37:32.977Z,79.96
2023-12-24T20:40:01.984Z,79.00
2023-12-24T20:42:30.829Z,79.22
2023-12-24T20:44:59.731Z,78.35
2023-12-24T20:47:29.901Z,78.77
2023-12-24T20:49:58.868Z,78.57
2023-12-24T20:52:28.972Z,78.57
2023-12-24T20:54:57.786Z,78.17
2023-12-24T20:57:25.630Z,77.56
2023-12-24T20:59:54.587Z,77.36
2023-12-24T21:02:23.544Z,76.88
2023-12-24T21:04:52.505Z,77.03
2023-12-24T21:07:21.525Z,76.84
2023-12-24T21:09:53.334Z,76.10
2023-12-24T21:12:24.455Z,75.80
2023-12-24T21:14:53.354Z,75.68
2023-12-24T21:17:22.302Z,75.18
2023-12-24T21:19:51.537Z,74.33
2023-12-24T21:22:20.398Z,74.91
2023-12-24T21:24:49.342Z,74.29
2023-12-24T21:27:20.643Z,74.25
2023-12-24T21:29:49.536Z,73.98
2023-12-24T21:32:18.503Z,73.53
2023-12-24T21:34:47.497Z,73.47
2023-12-24T21:37:16.603Z,73.49
2023-12-24T21:39:45.580Z,73.60
2023-12-24T21:42:14.565Z,72.69
2023-12-24T21:44:44.880Z,73.20
2023-12-24T21:47:13.924Z,72.99
2023-12-24T21:49:42.850Z,72.78
2023-12-24T21:52:11.967Z,72.85
2023-12-24T21:54:41.204Z,71.81
2023-12-24T21:57:10.155Z,72.01
2023-12-24T21:59:39.111Z,72.95
2023-12-24T22:02:09.560Z,72.95
2023-12-24T22:04:38.512Z,72.71
2023-12-24T22:07:07.365Z,72.63
2023-12-24T22:09:36.244Z,73.03
2023-12-24T22:12:05.868Z,73.07
2023-12-24T22:14:35.569Z,73.36
2023-12-24T22:17:04.699Z,72.46
2023-12-24T22:19:35.519Z,72.51
2023-12-24T22:22:04.536Z,72.05
2023-12-24T22:24:33.386Z,72.12
2023-12-24T22:27:02.428Z,71.44
2023-12-24T22:29:31.358Z,71.70
2023-12-24T22:32:00.134Z,71.61
2023-12-24T22:34:29.048Z,71.69
2023-12-24T22:36:59.381Z,70.98
2023-12-24T22:39:28.145Z,71.46
2023-12-24T22:41:57.054Z,71.26
2023-12-24T22:44:26.812Z,71.74
2023-12-24T22:46:55.643Z,71.91
2023-12-24T22:49:24.623Z,70.80
2023-12-24T22:51:53.566Z,71.38
2023-12-24T22:54:23.840Z,70.73
2023-12-24T22:56:52.826Z,71.06
2023-12-24T22:59:21.711Z,71.15
2023-12-24T23:01:50.682Z,70.80
2023-12-24T23:04:19.511Z,70.32
2023-12-24T23:06:48.331Z,69.90
2023-12-24T23:09:17.402Z,70.29
2023-12-24T23:11:47.590Z,70.30
2023-12-24T23:14:17.067Z,70.32
2023-12-24T23:16:46.693Z,70.59
2023-12-24T23:19:15.836Z,70.73
2023-12-24T23:21:44.657Z,70.73
2023-12-24T23:24:13.667Z,69.61
2023-12-24T23:26:42.500Z,70.59
2023-12-24T23:29:12.609Z,69.88
2023-12-24T23:31:41.549Z,70.66
2023-12-24T23:34:10.521Z,70.30
2023-12-24T23:36:39.404Z,70.31
2023-12-24T23:39:08.450Z,70.13
2023-12-24T23:41:37.437Z,69.93
2023-12-24T23:44:06.577Z,70.29
2023-12-24T23:46:37.384Z,70.43
2023-12-24T23:49:06.417Z,70.35
2023-12-24T23:51:35.318Z,70.47
2023-12-24T23:54:04.135Z,70.36
2023-12-24T23:56:32.926Z,71.03
2023-12-24T23:59:01.688Z,70.58
